Terminal Aerodrome Forecast
Issued by NWS

Home | Current Version | Previous Version | Text Only | Print | Product List | Glossary On
Versions: 1 2 3 4 5 6 7 8 9 10 11 12 13 14 15 16 17 18 19 20
000
FTAK31 PAJN 031126
TAFAKT
TAF
PAKT 031126Z 0312/0412 28004KT P6SM VCSH BKN020 BKN030 OVC070
      TEMPO 0312/0316 6SM -SHRA BR OVC020
     FM031600 31008KT 6SM -SHRA BR SCT015 BKN025 OVC050
     FM040300 VRB05KT 6SM -SHRA BR SCT015 BKN025 OVC050=

USA.gov is the U.S. government's official web portal to all federal, state and local government web resources and services.